sensor_id;sensor_type;location;lat;lon;timestamp;temperature;humidity
61807;DHT22;47726;52.766;6.606;2023-03-01T00:01:07;1.60;99.90
61807;DHT22;47726;52.766;6.606;2023-03-01T00:03:34;1.60;99.90
61807;DHT22;47726;52.766;6.606;2023-03-01T00:06:00;1.60;99.90
61807;DHT22;47726;52.766;6.606;2023-03-01T00:08:26;1.60;99.90
61807;DHT22;47726;52.766;6.606;2023-03-01T00:13:31;1.50;99.90
61807;DHT22;47726;52.766;6.606;2023-03-01T00:15:57;1.50;99.90
61807;DHT22;47726;52.766;6.606;2023-03-01T00:18:23;1.50;99.90
61807;DHT22;47726;52.766;6.606;2023-03-01T00:20:50;1.40;99.90
61807;DHT22;47726;52.766;6.606;2023-03-01T00:23:16;1.40;99.90
61807;DHT22;47726;52.766;6.606;2023-03-01T00:25:43;1.40;99.90
61807;DHT22;47726;52.766;6.606;2023-03-01T00:28:08;1.40;99.90
61807;DHT22;47726;52.766;6.606;2023-03-01T00:30:34;1.40;99.90
61807;DHT22;47726;52.766;6.606;2023-03-01T00:32:59;1.30;99.90
61807;DHT22;47726;52.766;6.606;2023-03-01T00:35:25;1.30;99.90
61807;DHT22;47726;52.766;6.606;2023-03-01T00:37:51;1.30;99.90
61807;DHT22;47726;52.766;6.606;2023-03-01T00:40:23;1.30;99.90
61807;DHT22;47726;52.766;6.606;2023-03-01T00:42:49;1.30;99.90
61807;DHT22;47726;52.766;6.606;2023-03-01T00:45:15;1.30;99.90
61807;DHT22;47726;52.766;6.606;2023-03-01T00:47:41;1.30;99.90
61807;DHT22;47726;52.766;6.606;2023-03-01T00:50:06;1.20;99.90
61807;DHT22;47726;52.766;6.606;2023-03-01T00:52:32;1.20;99.90
61807;DHT22;47726;52.766;6.606;2023-03-01T00:54:58;1.20;99.90
61807;DHT22;47726;52.766;6.606;2023-03-01T00:57:23;1.20;99.90
61807;DHT22;47726;52.766;6.606;2023-03-01T00:59:49;1.20;99.90
61807;DHT22;47726;52.766;6.606;2023-03-01T01:02:15;1.20;99.90
61807;DHT22;47726;52.766;6.606;2023-03-01T01:04:40;1.10;99.90
61807;DHT22;47726;52.766;6.606;2023-03-01T01:07:06;1.20;99.90
61807;DHT22;47726;52.766;6.606;2023-03-01T01:09:32;1.10;99.90
61807;DHT22;47726;52.766;6.606;2023-03-01T01:11:57;1.10;99.90
61807;DHT22;47726;52.766;6.606;2023-03-01T01:14:23;1.10;99.90
61807;DHT22;47726;52.766;6.606;2023-03-01T01:16:48;1.10;99.90
61807;DHT22;47726;52.766;6.606;2023-03-01T01:19:15;1.10;99.90
61807;DHT22;47726;52.766;6.606;2023-03-01T01:21:40;1.00;99.90
61807;DHT22;47726;52.766;6.606;2023-03-01T01:24:08;1.00;99.90
61807;DHT22;47726;52.766;6.606;2023-03-01T01:26:34;1.00;99.90
61807;DHT22;47726;52.766;6.606;2023-03-01T01:29:01;1.00;99.90
61807;DHT22;47726;52.766;6.606;2023-03-01T01:31:28;0.90;99.90
61807;DHT22;47726;52.766;6.606;2023-03-01T01:33:54;0.90;99.90
61807;DHT22;47726;52.766;6.606;2023-03-01T01:36:20;0.90;99.90
61807;DHT22;47726;52.766;6.606;2023-03-01T01:38:46;0.90;99.90
61807;DHT22;47726;52.766;6.606;2023-03-01T01:41:13;0.90;99.90
61807;DHT22;47726;52.766;6.606;2023-03-01T01:43:44;0.90;99.90
61807;DHT22;47726;52.766;6.606;2023-03-01T01:46:26;0.90;99.90
61807;DHT22;47726;52.766;6.606;2023-03-01T01:48:58;0.90;99.90
61807;DHT22;47726;52.766;6.606;2023-03-01T01:51:27;0.80;99.90
61807;DHT22;47726;52.766;6.606;2023-03-01T01:53:57;0.80;99.90
61807;DHT22;47726;52.766;6.606;2023-03-01T01:56:26;0.80;99.90
61807;DHT22;47726;52.766;6.606;2023-03-01T01:58:52;0.80;99.90
61807;DHT22;47726;52.766;6.606;2023-03-01T02:01:18;0.80;99.90
61807;DHT22;47726;52.766;6.606;2023-03-01T02:03:46;0.80;99.90
61807;DHT22;47726;52.766;6.606;2023-03-01T02:08:44;0.70;99.90
61807;DHT22;47726;52.766;6.606;2023-03-01T02:11:11;0.80;99.90
61807;DHT22;47726;52.766;6.606;2023-03-01T02:13:40;0.80;99.90
61807;DHT22;47726;52.766;6.606;2023-03-01T02:16:11;0.70;99.90
61807;DHT22;47726;52.766;6.606;2023-03-01T02:18:38;0.70;99.90
61807;DHT22;47726;52.766;6.606;2023-03-01T02:21:42;0.70;99.90
61807;DHT22;47726;52.766;6.606;2023-03-01T02:27:11;0.70;99.90
61807;DHT22;47726;52.766;6.606;2023-03-01T02:29:37;0.70;99.90
61807;DHT22;47726;52.766;6.606;2023-03-01T02:32:03;0.60;99.90
61807;DHT22;47726;52.766;6.606;2023-03-01T02:34:30;0.70;99.90
61807;DHT22;47726;52.766;6.606;2023-03-01T02:37:01;0.60;99.90
61807;DHT22;47726;52.766;6.606;2023-03-01T02:39:37;0.60;99.90
61807;DHT22;47726;52.766;6.606;2023-03-01T02:42:12;0.60;99.90
61807;DHT22;47726;52.766;6.606;2023-03-01T02:44:38;0.50;99.90
61807;DHT22;47726;52.766;6.606;2023-03-01T02:47:04;0.50;99.90
61807;DHT22;47726;52.766;6.606;2023-03-01T02:49:33;0.50;99.90
61807;DHT22;47726;52.766;6.606;2023-03-01T02:54:49;0.50;99.90
61807;DHT22;47726;52.766;6.606;2023-03-01T02:57:17;0.50;99.90
61807;DHT22;47726;52.766;6.606;2023-03-01T02:59:42;0.40;99.90
61807;DHT22;47726;52.766;6.606;2023-03-01T03:02:20;0.40;99.90
61807;DHT22;47726;52.766;6.606;2023-03-01T03:05:11;0.40;99.90
61807;DHT22;47726;52.766;6.606;2023-03-01T03:07:39;0.40;99.90
61807;DHT22;47726;52.766;6.606;2023-03-01T03:10:09;0.30;99.90
61807;DHT22;47726;52.766;6.606;2023-03-01T03:12:37;0.30;99.90
61807;DHT22;47726;52.766;6.606;2023-03-01T03:15:04;0.30;99.90
61807;DHT22;47726;52.766;6.606;2023-03-01T03:17:35;0.30;99.90
61807;DHT22;47726;52.766;6.606;2023-03-01T03:20:02;0.30;99.90
61807;DHT22;47726;52.766;6.606;2023-03-01T03:22:29;0.30;99.90
61807;DHT22;47726;52.766;6.606;2023-03-01T03:24:54;0.20;99.90
61807;DHT22;47726;52.766;6.606;2023-03-01T03:27:20;0.20;99.90
61807;DHT22;47726;52.766;6.606;2023-03-01T03:29:45;0.20;99.90
61807;DHT22;47726;52.766;6.606;2023-03-01T03:32:11;0.20;99.90
61807;DHT22;47726;52.766;6.606;2023-03-01T03:34:36;0.10;99.90
61807;DHT22;47726;52.766;6.606;2023-03-01T03:37:02;0.10;99.90
61807;DHT22;47726;52.766;6.606;2023-03-01T03:39:28;0.10;99.90
61807;DHT22;47726;52.766;6.606;2023-03-01T03:41:54;0.10;99.90
61807;DHT22;47726;52.766;6.606;2023-03-01T03:44:20;0.10;99.90
61807;DHT22;47726;52.766;6.606;2023-03-01T03:46:46;0.10;99.90
61807;DHT22;47726;52.766;6.606;2023-03-01T03:49:12;0.00;99.90
61807;DHT22;47726;52.766;6.606;2023-03-01T03:51:37;0.00;99.90
61807;DHT22;47726;52.766;6.606;2023-03-01T03:54:03;0.00;99.90
61807;DHT22;47726;52.766;6.606;2023-03-01T03:56:29;0.00;99.90
61807;DHT22;47726;52.766;6.606;2023-03-01T03:58:54;0.00;99.90
61807;DHT22;47726;52.766;6.606;2023-03-01T04:01:20;0.00;99.90
61807;DHT22;47726;52.766;6.606;2023-03-01T04:03:45;0.00;99.90
61807;DHT22;47726;52.766;6.606;2023-03-01T04:06:14;-0.10;99.90
61807;DHT22;47726;52.766;6.606;2023-03-01T04:08:40;-0.10;99.90
61807;DHT22;47726;52.766;6.606;2023-03-01T04:11:06;-0.10;99.90
61807;DHT22;47726;52.766;6.606;2023-03-01T04:13:53;-0.10;99.90
61807;DHT22;47726;52.766;6.606;2023-03-01T04:16:20;-0.10;99.90
61807;DHT22;47726;52.766;6.606;2023-03-01T04:18:46;-0.20;99.90
61807;DHT22;47726;52.766;6.606;2023-03-01T04:21:12;-0.20;99.90
61807;DHT22;47726;52.766;6.606;2023-03-01T04:23:38;-0.20;99.90
61807;DHT22;47726;52.766;6.606;2023-03-01T04:26:04;-0.30;99.90
61807;DHT22;47726;52.766;6.606;2023-03-01T04:28:36;-0.30;99.90
61807;DHT22;47726;52.766;6.606;2023-03-01T04:31:03;-0.30;99.90
61807;DHT22;47726;52.766;6.606;2023-03-01T04:36:08;-0.30;99.90
61807;DHT22;47726;52.766;6.606;2023-03-01T04:38:35;-0.30;99.90
61807;DHT22;47726;52.766;6.606;2023-03-01T04:41:03;-0.30;99.90
61807;DHT22;47726;52.766;6.606;2023-03-01T04:43:29;-0.30;99.90
61807;DHT22;47726;52.766;6.606;2023-03-01T04:45:54;-0.30;99.90
61807;DHT22;47726;52.766;6.606;2023-03-01T04:48:25;-0.40;99.90
61807;DHT22;47726;52.766;6.606;2023-03-01T04:50:50;-0.40;99.90
61807;DHT22;47726;52.766;6.606;2023-03-01T04:53:16;-0.40;99.90
61807;DHT22;47726;52.766;6.606;2023-03-01T04:55:44;-0.40;99.90
61807;DHT22;47726;52.766;6.606;2023-03-01T04:58:09;-0.50;99.90
61807;DHT22;47726;52.766;6.606;2023-03-01T05:00:35;-0.50;99.90
61807;DHT22;47726;52.766;6.606;2023-03-01T05:03:00;-0.50;99.90
61807;DHT22;47726;52.766;6.606;2023-03-01T05:05:37;-0.50;99.90
61807;DHT22;47726;52.766;6.606;2023-03-01T05:08:05;-0.50;99.90
61807;DHT22;47726;52.766;6.606;2023-03-01T05:10:33;-0.50;99.90
61807;DHT22;47726;52.766;6.606;2023-03-01T05:13:00;-0.50;99.90
61807;DHT22;47726;52.766;6.606;2023-03-01T05:15:28;-0.60;99.90
61807;DHT22;47726;52.766;6.606;2023-03-01T05:17:55;-0.60;99.90
61807;DHT22;47726;52.766;6.606;2023-03-01T05:20:23;-0.60;99.90
61807;DHT22;47726;52.766;6.606;2023-03-01T05:22:50;-0.60;99.90
61807;DHT22;47726;52.766;6.606;2023-03-01T05:25:16;-0.60;99.90
61807;DHT22;47726;52.766;6.606;2023-03-01T05:27:42;-0.60;99.90
61807;DHT22;47726;52.766;6.606;2023-03-01T05:30:09;-0.70;99.90
61807;DHT22;47726;52.766;6.606;2023-03-01T05:32:43;-0.70;99.90
61807;DHT22;47726;52.766;6.606;2023-03-01T05:35:13;-0.70;99.90
61807;DHT22;47726;52.766;6.606;2023-03-01T05:37:43;-0.70;99.90
61807;DHT22;47726;52.766;6.606;2023-03-01T05:40:12;-0.70;99.90
61807;DHT22;47726;52.766;6.606;2023-03-01T05:42:45;-0.70;99.90
61807;DHT22;47726;52.766;6.606;2023-03-01T05:45:12;-0.70;99.90
61807;DHT22;47726;52.766;6.606;2023-03-01T05:47:42;-0.80;99.90
61807;DHT22;47726;52.766;6.606;2023-03-01T05:50:15;-0.80;99.90
61807;DHT22;47726;52.766;6.606;2023-03-01T05:52:52;-0.70;99.90
61807;DHT22;47726;52.766;6.606;2023-03-01T05:55:21;-0.80;99.90
61807;DHT22;47726;52.766;6.606;2023-03-01T05:57:47;-0.80;99.90
61807;DHT22;47726;52.766;6.606;2023-03-01T06:00:15;-0.80;99.90
61807;DHT22;47726;52.766;6.606;2023-03-01T06:02:41;-0.80;99.90
61807;DHT22;47726;52.766;6.606;2023-03-01T06:05:09;-0.80;99.90
61807;DHT22;47726;52.766;6.606;2023-03-01T06:07:35;-0.80;99.90
61807;DHT22;47726;52.766;6.606;2023-03-01T06:10:02;-0.80;99.90
61807;DHT22;47726;52.766;6.606;2023-03-01T06:12:32;-0.80;99.90
61807;DHT22;47726;52.766;6.606;2023-03-01T06:14:58;-0.80;99.90
61807;DHT22;47726;52.766;6.606;2023-03-01T06:17:24;-0.90;99.90
61807;DHT22;47726;52.766;6.606;2023-03-01T06:19:50;-0.90;99.90
61807;DHT22;47726;52.766;6.606;2023-03-01T06:22:15;-0.90;99.90
61807;DHT22;47726;52.766;6.606;2023-03-01T06:24:41;-0.90;99.90
61807;DHT22;47726;52.766;6.606;2023-03-01T06:27:06;-0.90;99.90
61807;DHT22;47726;52.766;6.606;2023-03-01T06:29:32;-0.90;99.90
61807;DHT22;47726;52.766;6.606;2023-03-01T06:31:58;-0.90;99.90
61807;DHT22;47726;52.766;6.606;2023-03-01T06:34:23;-1.00;99.90
61807;DHT22;47726;52.766;6.606;2023-03-01T06:36:49;-1.00;99.90
61807;DHT22;47726;52.766;6.606;2023-03-01T06:39:14;-1.00;99.90
61807;DHT22;47726;52.766;6.606;2023-03-01T06:41:41;-1.00;99.90
61807;DHT22;47726;52.766;6.606;2023-03-01T06:44:07;-1.00;99.90
61807;DHT22;47726;52.766;6.606;2023-03-01T06:46:33;-0.90;99.90
61807;DHT22;47726;52.766;6.606;2023-03-01T06:48:58;-1.00;99.90
61807;DHT22;47726;52.766;6.606;2023-03-01T06:51:24;-0.90;99.90
61807;DHT22;47726;52.766;6.606;2023-03-01T06:53:50;-0.90;99.90
61807;DHT22;47726;52.766;6.606;2023-03-01T06:56:15;-0.90;99.90
61807;DHT22;47726;52.766;6.606;2023-03-01T06:58:41;-0.90;99.90
61807;DHT22;47726;52.766;6.606;2023-03-01T07:01:08;-0.90;99.90
61807;DHT22;47726;52.766;6.606;2023-03-01T07:03:34;-0.90;99.90
61807;DHT22;47726;52.766;6.606;2023-03-01T07:05:59;-0.90;99.90
61807;DHT22;47726;52.766;6.606;2023-03-01T07:08:25;-0.90;99.90
61807;DHT22;47726;52.766;6.606;2023-03-01T07:11:00;-0.90;99.90
61807;DHT22;47726;52.766;6.606;2023-03-01T07:13:27;-0.90;99.90
61807;DHT22;47726;52.766;6.606;2023-03-01T07:15:53;-0.90;99.90
61807;DHT22;47726;52.766;6.606;2023-03-01T07:18:19;-0.80;99.90
61807;DHT22;47726;52.766;6.606;2023-03-01T07:20:44;-0.90;99.90
61807;DHT22;47726;52.766;6.606;2023-03-01T07:23:10;-0.80;99.90
61807;DHT22;47726;52.766;6.606;2023-03-01T07:25:35;-0.80;99.90
61807;DHT22;47726;52.766;6.606;2023-03-01T07:28:01;-0.80;99.90
61807;DHT22;47726;52.766;6.606;2023-03-01T07:30:27;-0.70;99.90
61807;DHT22;47726;52.766;6.606;2023-03-01T07:32:54;-0.70;99.90
61807;DHT22;47726;52.766;6.606;2023-03-01T07:35:21;-0.60;99.90
61807;DHT22;47726;52.766;6.606;2023-03-01T07:37:46;-0.50;99.90
61807;DHT22;47726;52.766;6.606;2023-03-01T07:40:12;-0.30;99.90
61807;DHT22;47726;52.766;6.606;2023-03-01T07:42:38;-0.10;99.90
61807;DHT22;47726;52.766;6.606;2023-03-01T07:45:16;0.10;99.90
61807;DHT22;47726;52.766;6.606;2023-03-01T07:47:53;0.30;99.90
61807;DHT22;47726;52.766;6.606;2023-03-01T07:50:19;0.50;99.90
61807;DHT22;47726;52.766;6.606;2023-03-01T07:52:46;0.80;99.90
61807;DHT22;47726;52.766;6.606;2023-03-01T07:55:11;1.00;99.90
61807;DHT22;47726;52.766;6.606;2023-03-01T07:57:38;1.20;99.90
61807;DHT22;47726;52.766;6.606;2023-03-01T08:00:04;1.40;99.90
61807;DHT22;47726;52.766;6.606;2023-03-01T08:02:30;1.70;99.90
61807;DHT22;47726;52.766;6.606;2023-03-01T08:04:55;1.90;99.90
61807;DHT22;47726;52.766;6.606;2023-03-01T08:07:21;2.20;99.90
61807;DHT22;47726;52.766;6.606;2023-03-01T08:09:46;2.50;99.90
61807;DHT22;47726;52.766;6.606;2023-03-01T08:12:12;2.70;99.90
61807;DHT22;47726;52.766;6.606;2023-03-01T08:14:38;3.00;99.90
61807;DHT22;47726;52.766;6.606;2023-03-01T08:17:03;3.20;99.90
61807;DHT22;47726;52.766;6.606;2023-03-01T08:19:29;3.50;99.90
61807;DHT22;47726;52.766;6.606;2023-03-01T08:21:55;3.80;99.90
61807;DHT22;47726;52.766;6.606;2023-03-01T08:24:23;4.10;99.90
61807;DHT22;47726;52.766;6.606;2023-03-01T08:26:49;4.30;99.90
61807;DHT22;47726;52.766;6.606;2023-03-01T08:29:15;4.60;99.90
61807;DHT22;47726;52.766;6.606;2023-03-01T08:31:41;4.80;99.90
61807;DHT22;47726;52.766;6.606;2023-03-01T08:34:12;5.00;99.90
61807;DHT22;47726;52.766;6.606;2023-03-01T08:36:40;5.20;99.90
61807;DHT22;47726;52.766;6.606;2023-03-01T08:39:07;5.50;99.90
61807;DHT22;47726;52.766;6.606;2023-03-01T08:41:34;5.70;99.90
61807;DHT22;47726;52.766;6.606;2023-03-01T08:44:00;5.90;99.90
61807;DHT22;47726;52.766;6.606;2023-03-01T08:46:36;6.10;99.90
61807;DHT22;47726;52.766;6.606;2023-03-01T08:49:14;6.30;99.90
61807;DHT22;47726;52.766;6.606;2023-03-01T08:51:41;6.50;99.90
61807;DHT22;47726;52.766;6.606;2023-03-01T08:54:12;6.70;99.90
61807;DHT22;47726;52.766;6.606;2023-03-01T08:56:38;6.90;99.90
61807;DHT22;47726;52.766;6.606;2023-03-01T08:59:04;7.10;99.90
61807;DHT22;47726;52.766;6.606;2023-03-01T09:01:29;7.20;99.90
61807;DHT22;47726;52.766;6.606;2023-03-01T09:03:55;7.30;99.90
61807;DHT22;47726;52.766;6.606;2023-03-01T09:06:24;7.50;99.90
61807;DHT22;47726;52.766;6.606;2023-03-01T09:08:50;7.60;99.90
61807;DHT22;47726;52.766;6.606;2023-03-01T09:11:19;7.70;99.90
61807;DHT22;47726;52.766;6.606;2023-03-01T09:13:46;8.00;99.90
61807;DHT22;47726;52.766;6.606;2023-03-01T09:16:15;8.10;99.90
61807;DHT22;47726;52.766;6.606;2023-03-01T09:18:43;8.30;99.90
61807;DHT22;47726;52.766;6.606;2023-03-01T09:21:18;8.40;99.90
61807;DHT22;47726;52.766;6.606;2023-03-01T09:23:45;8.60;99.90
61807;DHT22;47726;52.766;6.606;2023-03-01T09:26:20;8.70;99.90
61807;DHT22;47726;52.766;6.606;2023-03-01T09:28:48;8.80;99.90
61807;DHT22;47726;52.766;6.606;2023-03-01T09:31:15;8.90;99.90
61807;DHT22;47726;52.766;6.606;2023-03-01T09:33:42;9.10;99.90
61807;DHT22;47726;52.766;6.606;2023-03-01T09:36:11;9.20;99.90
61807;DHT22;47726;52.766;6.606;2023-03-01T09:38:40;9.40;99.90
61807;DHT22;47726;52.766;6.606;2023-03-01T09:41:25;9.70;99.90
61807;DHT22;47726;52.766;6.606;2023-03-01T09:43:55;9.90;99.90
61807;DHT22;47726;52.766;6.606;2023-03-01T09:46:24;10.10;99.90
61807;DHT22;47726;52.766;6.606;2023-03-01T09:48:55;10.30;99.90
61807;DHT22;47726;52.766;6.606;2023-03-01T09:51:33;10.50;99.90
61807;DHT22;47726;52.766;6.606;2023-03-01T09:54:01;10.70;99.90
61807;DHT22;47726;52.766;6.606;2023-03-01T09:56:41;10.80;99.90
61807;DHT22;47726;52.766;6.606;2023-03-01T09:59:30;11.00;99.90
61807;DHT22;47726;52.766;6.606;2023-03-01T10:02:22;11.10;99.90
61807;DHT22;47726;52.766;6.606;2023-03-01T10:04:51;11.30;99.90
61807;DHT22;47726;52.766;6.606;2023-03-01T10:07:21;11.30;99.90
61807;DHT22;47726;52.766;6.606;2023-03-01T10:09:52;11.30;99.90
61807;DHT22;47726;52.766;6.606;2023-03-01T10:12:20;11.30;99.90
61807;DHT22;47726;52.766;6.606;2023-03-01T10:15:12;11.30;99.90
61807;DHT22;47726;52.766;6.606;2023-03-01T10:17:48;11.30;99.90
61807;DHT22;47726;52.766;6.606;2023-03-01T10:20:25;11.10;97.20
61807;DHT22;47726;52.766;6.606;2023-03-01T10:22:51;10.90;97.20
61807;DHT22;47726;52.766;6.606;2023-03-01T10:27:53;10.40;93.90
61807;DHT22;47726;52.766;6.606;2023-03-01T10:30:20;10.30;96.80
61807;DHT22;47726;52.766;6.606;2023-03-01T10:32:48;10.00;94.80
61807;DHT22;47726;52.766;6.606;2023-03-01T10:35:17;9.80;93.90
61807;DHT22;47726;52.766;6.606;2023-03-01T10:40:34;9.50;94.60
61807;DHT22;47726;52.766;6.606;2023-03-01T10:43:03;9.50;95.00
61807;DHT22;47726;52.766;6.606;2023-03-01T10:45:35;9.40;95.80
61807;DHT22;47726;52.766;6.606;2023-03-01T10:48:21;9.40;93.90
61807;DHT22;47726;52.766;6.606;2023-03-01T10:56:09;9.50;92.70
61807;DHT22;47726;52.766;6.606;2023-03-01T10:58:37;9.60;94.80
61807;DHT22;47726;52.766;6.606;2023-03-01T11:03:42;9.70;93.10
61807;DHT22;47726;52.766;6.606;2023-03-01T11:08:45;9.80;93.70
61807;DHT22;47726;52.766;6.606;2023-03-01T11:11:30;9.90;95.50
61807;DHT22;47726;52.766;6.606;2023-03-01T11:14:00;9.90;93.20
61807;DHT22;47726;52.766;6.606;2023-03-01T11:16:31;10.00;93.40
61807;DHT22;47726;52.766;6.606;2023-03-01T11:19:19;10.00;91.70
61807;DHT22;47726;52.766;6.606;2023-03-01T11:22:17;9.90;92.30
61807;DHT22;47726;52.766;6.606;2023-03-01T11:24:51;10.00;93.10
61807;DHT22;47726;52.766;6.606;2023-03-01T11:27:24;10.00;92.60
61807;DHT22;47726;52.766;6.606;2023-03-01T11:32:40;10.20;95.90
61807;DHT22;47726;52.766;6.606;2023-03-01T11:35:22;10.40;97.10
61807;DHT22;47726;52.766;6.606;2023-03-01T11:38:09;10.50;98.50
61807;DHT22;47726;52.766;6.606;2023-03-01T11:40:47;10.70;98.40
61807;DHT22;47726;52.766;6.606;2023-03-01T11:54:49;11.20;99.90
61807;DHT22;47726;52.766;6.606;2023-03-01T12:11:41;11.60;99.90
61807;DHT22;47726;52.766;6.606;2023-03-01T12:14:35;11.70;99.90
61807;DHT22;47726;52.766;6.606;2023-03-01T12:26:05;11.80;99.90
61807;DHT22;47726;52.766;6.606;2023-03-01T12:34:22;11.80;99.90
61807;DHT22;47726;52.766;6.606;2023-03-01T12:36:53;11.80;99.90
61807;DHT22;47726;52.766;6.606;2023-03-01T12:39:25;11.80;99.90
61807;DHT22;47726;52.766;6.606;2023-03-01T12:47:18;11.80;99.90
61807;DHT22;47726;52.766;6.606;2023-03-01T12:49:54;11.80;99.90
61807;DHT22;47726;52.766;6.606;2023-03-01T12:52:35;11.80;99.90
61807;DHT22;47726;52.766;6.606;2023-03-01T12:55:16;11.80;99.90
61807;DHT22;47726;52.766;6.606;2023-03-01T12:57:54;11.80;99.90
61807;DHT22;47726;52.766;6.606;2023-03-01T13:00:30;11.80;99.90
61807;DHT22;47726;52.766;6.606;2023-03-01T13:03:25;11.80;99.90
61807;DHT22;47726;52.766;6.606;2023-03-01T13:06:03;11.80;99.90
61807;DHT22;47726;52.766;6.606;2023-03-01T13:08:46;11.80;99.90
61807;DHT22;47726;52.766;6.606;2023-03-01T13:11:21;11.80;99.90
61807;DHT22;47726;52.766;6.606;2023-03-01T13:13:47;11.70;99.90
61807;DHT22;47726;52.766;6.606;2023-03-01T13:21:40;11.70;99.90
61807;DHT22;47726;52.766;6.606;2023-03-01T13:29:55;11.60;99.90
61807;DHT22;47726;52.766;6.606;2023-03-01T13:32:22;11.60;99.90
61807;DHT22;47726;52.766;6.606;2023-03-01T13:34:53;11.50;99.90
61807;DHT22;47726;52.766;6.606;2023-03-01T13:37:28;11.50;99.90
61807;DHT22;47726;52.766;6.606;2023-03-01T13:39:59;11.50;99.90
61807;DHT22;47726;52.766;6.606;2023-03-01T13:42:36;11.40;99.90
61807;DHT22;47726;52.766;6.606;2023-03-01T13:45:04;11.40;99.90
61807;DHT22;47726;52.766;6.606;2023-03-01T13:47:32;11.40;99.90
61807;DHT22;47726;52.766;6.606;2023-03-01T13:50:01;11.50;99.90
61807;DHT22;47726;52.766;6.606;2023-03-01T13:52:54;11.40;99.90
61807;DHT22;47726;52.766;6.606;2023-03-01T13:55:37;11.40;99.90
61807;DHT22;47726;52.766;6.606;2023-03-01T13:58:15;11.40;99.90
61807;DHT22;47726;52.766;6.606;2023-03-01T14:00:41;11.40;99.90
61807;DHT22;47726;52.766;6.606;2023-03-01T14:03:19;11.40;99.90
61807;DHT22;47726;52.766;6.606;2023-03-01T14:06:05;11.30;99.90
61807;DHT22;47726;52.766;6.606;2023-03-01T14:08:37;11.30;99.90
61807;DHT22;47726;52.766;6.606;2023-03-01T14:19:33;11.20;99.90
61807;DHT22;47726;52.766;6.606;2023-03-01T14:22:26;11.20;99.90
61807;DHT22;47726;52.766;6.606;2023-03-01T14:25:00;11.20;99.90
61807;DHT22;47726;52.766;6.606;2023-03-01T14:27:30;11.10;99.90
61807;DHT22;47726;52.766;6.606;2023-03-01T14:30:02;11.10;99.90
61807;DHT22;47726;52.766;6.606;2023-03-01T14:32:30;11.10;99.90
61807;DHT22;47726;52.766;6.606;2023-03-01T14:34:58;11.10;99.90
61807;DHT22;47726;52.766;6.606;2023-03-01T14:37:33;11.10;99.90
61807;DHT22;47726;52.766;6.606;2023-03-01T14:40:00;11.10;99.90
61807;DHT22;47726;52.766;6.606;2023-03-01T14:42:31;11.00;99.90
61807;DHT22;47726;52.766;6.606;2023-03-01T14:45:00;11.00;99.90
61807;DHT22;47726;52.766;6.606;2023-03-01T14:47:32;11.00;99.90
61807;DHT22;47726;52.766;6.606;2023-03-01T14:50:02;10.90;99.90
61807;DHT22;47726;52.766;6.606;2023-03-01T14:52:42;10.90;99.90
61807;DHT22;47726;52.766;6.606;2023-03-01T14:55:19;10.90;99.90
61807;DHT22;47726;52.766;6.606;2023-03-01T14:57:49;10.90;99.90
61807;DHT22;47726;52.766;6.606;2023-03-01T15:00:26;10.80;99.90
61807;DHT22;47726;52.766;6.606;2023-03-01T15:02:55;10.80;99.90
61807;DHT22;47726;52.766;6.606;2023-03-01T15:05:29;10.70;99.90
61807;DHT22;47726;52.766;6.606;2023-03-01T15:07:57;10.70;99.90
61807;DHT22;47726;52.766;6.606;2023-03-01T15:10:27;10.70;99.90
61807;DHT22;47726;52.766;6.606;2023-03-01T15:12:53;10.60;99.90
61807;DHT22;47726;52.766;6.606;2023-03-01T15:18:03;10.50;99.90
61807;DHT22;47726;52.766;6.606;2023-03-01T15:20:31;10.50;99.90
61807;DHT22;47726;52.766;6.606;2023-03-01T15:23:01;10.40;99.90
61807;DHT22;47726;52.766;6.606;2023-03-01T15:25:29;10.40;99.90
61807;DHT22;47726;52.766;6.606;2023-03-01T15:27:57;10.30;99.90
61807;DHT22;47726;52.766;6.606;2023-03-01T15:30:32;10.30;99.90
61807;DHT22;47726;52.766;6.606;2023-03-01T15:33:26;10.20;99.90
61807;DHT22;47726;52.766;6.606;2023-03-01T15:35:55;10.20;99.90
61807;DHT22;47726;52.766;6.606;2023-03-01T15:38:49;10.10;99.90
61807;DHT22;47726;52.766;6.606;2023-03-01T15:41:26;10.00;99.90
61807;DHT22;47726;52.766;6.606;2023-03-01T15:43:52;10.00;99.90
61807;DHT22;47726;52.766;6.606;2023-03-01T15:46:22;10.00;99.90
61807;DHT22;47726;52.766;6.606;2023-03-01T15:48:53;9.90;99.90
61807;DHT22;47726;52.766;6.606;2023-03-01T15:51:33;9.90;99.90
61807;DHT22;47726;52.766;6.606;2023-03-01T15:54:03;9.90;99.90
61807;DHT22;47726;52.766;6.606;2023-03-01T15:56:29;9.80;99.90
61807;DHT22;47726;52.766;6.606;2023-03-01T15:59:02;9.80;99.90
61807;DHT22;47726;52.766;6.606;2023-03-01T16:01:29;9.80;99.90
61807;DHT22;47726;52.766;6.606;2023-03-01T16:03:54;9.70;99.90
61807;DHT22;47726;52.766;6.606;2023-03-01T16:06:20;9.70;99.90
61807;DHT22;47726;52.766;6.606;2023-03-01T16:08:46;9.70;99.90
61807;DHT22;47726;52.766;6.606;2023-03-01T16:11:16;9.60;99.90
61807;DHT22;47726;52.766;6.606;2023-03-01T16:13:43;9.60;99.90
61807;DHT22;47726;52.766;6.606;2023-03-01T16:16:12;9.60;99.90
61807;DHT22;47726;52.766;6.606;2023-03-01T16:18:42;9.50;99.90
61807;DHT22;47726;52.766;6.606;2023-03-01T16:21:29;9.50;99.90
61807;DHT22;47726;52.766;6.606;2023-03-01T16:23:55;9.50;99.90
61807;DHT22;47726;52.766;6.606;2023-03-01T16:26:21;9.40;99.90
61807;DHT22;47726;52.766;6.606;2023-03-01T16:28:47;9.40;99.90
61807;DHT22;47726;52.766;6.606;2023-03-01T16:31:18;9.40;99.90
61807;DHT22;47726;52.766;6.606;2023-03-01T16:33:44;9.30;99.90
61807;DHT22;47726;52.766;6.606;2023-03-01T16:36:16;9.30;99.90
61807;DHT22;47726;52.766;6.606;2023-03-01T16:38:42;9.20;99.90
61807;DHT22;47726;52.766;6.606;2023-03-01T16:41:18;9.10;99.90
61807;DHT22;47726;52.766;6.606;2023-03-01T16:43:45;9.00;99.90
61807;DHT22;47726;52.766;6.606;2023-03-01T16:46:19;9.00;99.90
61807;DHT22;47726;52.766;6.606;2023-03-01T16:48:46;8.90;99.90
61807;DHT22;47726;52.766;6.606;2023-03-01T16:51:12;8.90;99.90
61807;DHT22;47726;52.766;6.606;2023-03-01T16:53:38;8.80;99.90
61807;DHT22;47726;52.766;6.606;2023-03-01T16:56:09;8.70;99.90
61807;DHT22;47726;52.766;6.606;2023-03-01T16:58:36;8.70;99.90
61807;DHT22;47726;52.766;6.606;2023-03-01T17:01:07;8.60;99.90
61807;DHT22;47726;52.766;6.606;2023-03-01T17:03:33;8.60;99.90
61807;DHT22;47726;52.766;6.606;2023-03-01T17:06:08;8.50;99.90
61807;DHT22;47726;52.766;6.606;2023-03-01T17:08:35;8.40;99.90
61807;DHT22;47726;52.766;6.606;2023-03-01T17:11:05;8.40;99.90
61807;DHT22;47726;52.766;6.606;2023-03-01T17:13:31;8.30;99.90
61807;DHT22;47726;52.766;6.606;2023-03-01T17:15:56;8.20;99.90
61807;DHT22;47726;52.766;6.606;2023-03-01T17:18:22;8.20;99.90
61807;DHT22;47726;52.766;6.606;2023-03-01T17:20:48;8.10;99.90
61807;DHT22;47726;52.766;6.606;2023-03-01T17:23:14;8.10;99.90
61807;DHT22;47726;52.766;6.606;2023-03-01T17:25:43;8.00;99.90
61807;DHT22;47726;52.766;6.606;2023-03-01T17:28:10;8.00;99.90
61807;DHT22;47726;52.766;6.606;2023-03-01T17:30:36;7.90;99.90
61807;DHT22;47726;52.766;6.606;2023-03-01T17:33:02;7.80;99.90
61807;DHT22;47726;52.766;6.606;2023-03-01T17:35:27;7.80;99.90